sensor_id;sensor_type;location;lat;lon;timestamp;pressure;altitude;pressure_sealevel;temperature;humidity
71907;BME280;59781;52.090;5.030;2023-04-01T00:01:07;98992.47;;;10.01;100.00
71907;BME280;59781;52.090;5.030;2023-04-01T00:03:34;98988.34;;;10.05;100.00
71907;BME280;59781;52.090;5.030;2023-04-01T00:06:01;99002.31;;;9.75;100.00
71907;BME280;59781;52.090;5.030;2023-04-01T00:08:27;98997.31;;;9.72;100.00
71907;BME280;59781;52.090;5.030;2023-04-01T00:10:54;99004.72;;;9.90;100.00
71907;BME280;59781;52.090;5.030;2023-04-01T00:13:20;99008.06;;;9.72;100.00
71907;BME280;59781;52.090;5.030;2023-04-01T00:15:46;99009.94;;;9.78;100.00
71907;BME280;59781;52.090;5.030;2023-04-01T00:18:13;99015.69;;;9.82;100.00
71907;BME280;59781;52.090;5.030;2023-04-01T00:20:43;99014.50;;;9.78;100.00
71907;BME280;59781;52.090;5.030;2023-04-01T00:23:11;99014.72;;;9.63;100.00
71907;BME280;59781;52.090;5.030;2023-04-01T00:25:37;99024.84;;;9.74;100.00
71907;BME280;59781;52.090;5.030;2023-04-01T00:28:02;99023.38;;;9.78;100.00
71907;BME280;59781;52.090;5.030;2023-04-01T00:30:28;99015.53;;;9.84;100.00
71907;BME280;59781;52.090;5.030;2023-04-01T00:32:54;99023.38;;;9.78;100.00
71907;BME280;59781;52.090;5.030;2023-04-01T00:35:20;99021.25;;;10.00;100.00
71907;BME280;59781;52.090;5.030;2023-04-01T00:37:46;99012.41;;;9.87;100.00
71907;BME280;59781;52.090;5.030;2023-04-01T00:40:28;99022.13;;;9.81;100.00
71907;BME280;59781;52.090;5.030;2023-04-01T00:42:59;99019.25;;;9.76;100.00
71907;BME280;59781;52.090;5.030;2023-04-01T00:45:38;99026.88;;;9.86;100.00
71907;BME280;59781;52.090;5.030;2023-04-01T00:48:14;99019.25;;;9.69;100.00
71907;BME280;59781;52.090;5.030;2023-04-01T00:50:50;99036.25;;;9.50;100.00
71907;BME280;59781;52.090;5.030;2023-04-01T00:53:21;99033.56;;;9.57;100.00
71907;BME280;59781;52.090;5.030;2023-04-01T00:55:54;99031.69;;;9.64;100.00
71907;BME280;59781;52.090;5.030;2023-04-01T00:58:29;99035.63;;;9.55;100.00
71907;BME280;59781;52.090;5.030;2023-04-01T01:01:00;99037.88;;;9.71;100.00
71907;BME280;59781;52.090;5.030;2023-04-01T01:03:27;99030.63;;;9.71;100.00
71907;BME280;59781;52.090;5.030;2023-04-01T01:12:11;99030.84;;;9.63;100.00
71907;BME280;59781;52.090;5.030;2023-04-01T01:17:32;99027.78;;;9.33;100.00
71907;BME280;59781;52.090;5.030;2023-04-01T01:20:30;99040.81;;;9.16;100.00
71907;BME280;59781;52.090;5.030;2023-04-01T01:23:19;99047.84;;;9.44;100.00
71907;BME280;59781;52.090;5.030;2023-04-01T01:29:06;99046.34;;;9.61;100.00
71907;BME280;59781;52.090;5.030;2023-04-01T01:31:44;99047.38;;;9.60;100.00
71907;BME280;59781;52.090;5.030;2023-04-01T01:34:27;99037.69;;;9.53;100.00
71907;BME280;59781;52.090;5.030;2023-04-01T01:37:24;99036.84;;;9.65;100.00
71907;BME280;59781;52.090;5.030;2023-04-01T01:39:58;99042.44;;;9.31;100.00
71907;BME280;59781;52.090;5.030;2023-04-01T01:42:31;99038.94;;;9.30;100.00
71907;BME280;59781;52.090;5.030;2023-04-01T01:45:03;99047.63;;;9.39;100.00
71907;BME280;59781;52.090;5.030;2023-04-01T01:47:34;99044.72;;;9.27;100.00
71907;BME280;59781;52.090;5.030;2023-04-01T01:50:04;99050.72;;;9.23;100.00
71907;BME280;59781;52.090;5.030;2023-04-01T01:52:31;99053.19;;;9.24;100.00
71907;BME280;59781;52.090;5.030;2023-04-01T01:54:58;99059.19;;;9.33;100.00
71907;BME280;59781;52.090;5.030;2023-04-01T01:57:32;99059.19;;;9.39;100.00
71907;BME280;59781;52.090;5.030;2023-04-01T02:00:09;99055.28;;;9.29;100.00
71907;BME280;59781;52.090;5.030;2023-04-01T02:02:47;99057.97;;;9.35;100.00
71907;BME280;59781;52.090;5.030;2023-04-01T02:05:24;99061.66;;;9.21;100.00
71907;BME280;59781;52.090;5.030;2023-04-01T02:08:26;99065.38;;;9.13;100.00
71907;BME280;59781;52.090;5.030;2023-04-01T02:11:06;99072.63;;;9.19;100.00
71907;BME280;59781;52.090;5.030;2023-04-01T02:14:02;99077.38;;;9.31;100.00
71907;BME280;59781;52.090;5.030;2023-04-01T02:19:23;99076.34;;;9.38;100.00
71907;BME280;59781;52.090;5.030;2023-04-01T02:22:00;99077.78;;;9.28;100.00
71907;BME280;59781;52.090;5.030;2023-04-01T02:24:31;99080.91;;;9.25;100.00
71907;BME280;59781;52.090;5.030;2023-04-01T02:27:00;99085.25;;;9.45;100.00
71907;BME280;59781;52.090;5.030;2023-04-01T02:29:28;99081.09;;;9.23;100.00
71907;BME280;59781;52.090;5.030;2023-04-01T02:31:55;99079.03;;;9.25;100.00
71907;BME280;59781;52.090;5.030;2023-04-01T02:34:23;99083.59;;;9.25;100.00
71907;BME280;59781;52.090;5.030;2023-04-01T02:36:51;99094.09;;;9.33;100.00
71907;BME280;59781;52.090;5.030;2023-04-01T02:39:17;99095.13;;;9.18;100.00
71907;BME280;59781;52.090;5.030;2023-04-01T02:41:45;99097.84;;;9.52;100.00
71907;BME280;59781;52.090;5.030;2023-04-01T02:44:14;99098.66;;;9.26;100.00
71907;BME280;59781;52.090;5.030;2023-04-01T02:46:42;99098.47;;;9.27;100.00
71907;BME280;59781;52.090;5.030;2023-04-01T02:49:08;99102.59;;;9.43;100.00
71907;BME280;59781;52.090;5.030;2023-04-01T02:51:34;99110.47;;;9.44;100.00
71907;BME280;59781;52.090;5.030;2023-04-01T02:54:00;99109.81;;;9.29;100.00
71907;BME280;59781;52.090;5.030;2023-04-01T02:56:27;99111.06;;;9.40;100.00
71907;BME280;59781;52.090;5.030;2023-04-01T02:58:53;99111.06;;;9.40;100.00
71907;BME280;59781;52.090;5.030;2023-04-01T03:01:20;99120.56;;;9.16;100.00
71907;BME280;59781;52.090;5.030;2023-04-01T03:03:46;99118.50;;;9.31;100.00
71907;BME280;59781;52.090;5.030;2023-04-01T03:06:15;99118.94;;;9.55;100.00
71907;BME280;59781;52.090;5.030;2023-04-01T03:08:42;99123.88;;;9.77;100.00
71907;BME280;59781;52.090;5.030;2023-04-01T03:11:09;99128.00;;;9.27;100.00
71907;BME280;59781;52.090;5.030;2023-04-01T03:13:36;99123.25;;;9.36;100.00
71907;BME280;59781;52.090;5.030;2023-04-01T03:16:02;99136.28;;;9.26;100.00
71907;BME280;59781;52.090;5.030;2023-04-01T03:18:28;99144.31;;;9.19;100.00
71907;BME280;59781;52.090;5.030;2023-04-01T03:20:56;99146.59;;;9.22;100.00
71907;BME280;59781;52.090;5.030;2023-04-01T03:23:22;99152.41;;;9.39;100.00
71907;BME280;59781;52.090;5.030;2023-04-01T03:25:49;99151.13;;;9.15;100.00
71907;BME280;59781;52.090;5.030;2023-04-01T03:28:15;99153.22;;;9.39;100.00
71907;BME280;59781;52.090;5.030;2023-04-01T03:30:42;99161.13;;;9.54;100.00
71907;BME280;59781;52.090;5.030;2023-04-01T03:33:08;99158.63;;;9.59;100.00
71907;BME280;59781;52.090;5.030;2023-04-01T03:35:34;99168.94;;;9.42;100.00
71907;BME280;59781;52.090;5.030;2023-04-01T03:38:01;99170.59;;;9.43;100.00
71907;BME280;59781;52.090;5.030;2023-04-01T03:40:28;99169.78;;;9.49;100.00
71907;BME280;59781;52.090;5.030;2023-04-01T03:42:53;99173.91;;;9.59;100.00
71907;BME280;59781;52.090;5.030;2023-04-01T03:45:21;99179.91;;;9.61;100.00
71907;BME280;59781;52.090;5.030;2023-04-01T03:47:46;99186.34;;;9.66;100.00
71907;BME280;59781;52.090;5.030;2023-04-01T03:50:12;99174.94;;;9.71;100.00
71907;BME280;59781;52.090;5.030;2023-04-01T03:52:38;99194.81;;;9.70;100.00
71907;BME280;59781;52.090;5.030;2023-04-01T03:55:04;99191.50;;;9.74;100.00
71907;BME280;59781;52.090;5.030;2023-04-01T03:57:31;99200.00;;;9.65;100.00
71907;BME280;59781;52.090;5.030;2023-04-01T04:00:02;99198.13;;;9.85;100.00
71907;BME280;59781;52.090;5.030;2023-04-01T04:02:28;99201.84;;;9.97;100.00
71907;BME280;59781;52.090;5.030;2023-04-01T04:04:54;99206.19;;;10.12;100.00
71907;BME280;59781;52.090;5.030;2023-04-01T04:07:20;99207.41;;;10.02;100.00
71907;BME280;59781;52.090;5.030;2023-04-01T04:10:12;99211.38;;;10.13;100.00
71907;BME280;59781;52.090;5.030;2023-04-01T04:12:37;99214.47;;;10.03;100.00
71907;BME280;59781;52.090;5.030;2023-04-01T04:15:03;99216.13;;;10.04;100.00
71907;BME280;59781;52.090;5.030;2023-04-01T04:17:29;99224.41;;;10.03;100.00
71907;BME280;59781;52.090;5.030;2023-04-01T04:19:55;99229.78;;;10.03;100.00
71907;BME280;59781;52.090;5.030;2023-04-01T04:22:21;99224.19;;;9.85;100.00
71907;BME280;59781;52.090;5.030;2023-04-01T04:24:46;99236.19;;;10.02;100.00
71907;BME280;59781;52.090;5.030;2023-04-01T04:27:12;99236.59;;;9.79;100.00
71907;BME280;59781;52.090;5.030;2023-04-01T04:29:50;99246.31;;;9.80;100.00
71907;BME280;59781;52.090;5.030;2023-04-01T04:32:16;99241.34;;;9.90;100.00
71907;BME280;59781;52.090;5.030;2023-04-01T04:34:42;99250.03;;;9.92;100.00
71907;BME280;59781;52.090;5.030;2023-04-01T04:37:08;99258.09;;;9.92;100.00
71907;BME280;59781;52.090;5.030;2023-04-01T04:39:35;99261.41;;;10.01;100.00
71907;BME280;59781;52.090;5.030;2023-04-01T04:42:01;99264.31;;;9.80;100.00
71907;BME280;59781;52.090;5.030;2023-04-01T04:44:27;99273.41;;;9.78;100.00
71907;BME280;59781;52.090;5.030;2023-04-01T04:46:53;99281.06;;;9.88;100.00
71907;BME280;59781;52.090;5.030;2023-04-01T04:49:18;99279.84;;;10.04;100.00
71907;BME280;59781;52.090;5.030;2023-04-01T04:51:44;99281.09;;;10.15;100.00
71907;BME280;59781;52.090;5.030;2023-04-01T04:54:13;99281.72;;;10.30;100.00
71907;BME280;59781;52.090;5.030;2023-04-01T04:57:07;99294.94;;;10.12;100.00
71907;BME280;59781;52.090;5.030;2023-04-01T04:59:40;99290.63;;;10.04;100.00
71907;BME280;59781;52.090;5.030;2023-04-01T05:02:17;99296.38;;;9.88;100.00
71907;BME280;59781;52.090;5.030;2023-04-01T05:04:43;99302.81;;;10.00;100.00
71907;BME280;59781;52.090;5.030;2023-04-01T05:07:10;99309.63;;;10.02;100.00
71907;BME280;59781;52.090;5.030;2023-04-01T05:09:36;99308.38;;;9.92;100.00
71907;BME280;59781;52.090;5.030;2023-04-01T05:12:03;99313.97;;;9.84;100.00
71907;BME280;59781;52.090;5.030;2023-04-01T05:14:42;99317.25;;;9.92;100.00
71907;BME280;59781;52.090;5.030;2023-04-01T05:17:10;99320.38;;;10.02;100.00
71907;BME280;59781;52.090;5.030;2023-04-01T05:19:38;99322.44;;;9.87;100.00
71907;BME280;59781;52.090;5.030;2023-04-01T05:22:05;99329.88;;;9.85;100.00
71907;BME280;59781;52.090;5.030;2023-04-01T05:24:32;99337.13;;;9.85;100.00
71907;BME280;59781;52.090;5.030;2023-04-01T05:26:59;99343.16;;;10.06;100.00
71907;BME280;59781;52.090;5.030;2023-04-01T05:29:26;99342.88;;;9.82;100.00
71907;BME280;59781;52.090;5.030;2023-04-01T05:31:59;99350.31;;;9.73;100.00
71907;BME280;59781;52.090;5.030;2023-04-01T05:34:25;99354.47;;;9.82;100.00
71907;BME280;59781;52.090;5.030;2023-04-01T05:36:51;99355.50;;;9.81;100.00
71907;BME280;59781;52.090;5.030;2023-04-01T05:39:17;99370.41;;;9.77;100.00
71907;BME280;59781;52.090;5.030;2023-04-01T05:41:43;99367.69;;;9.70;100.00
71907;BME280;59781;52.090;5.030;2023-04-01T05:44:11;99376.63;;;9.84;100.00
71907;BME280;59781;52.090;5.030;2023-04-01T05:46:40;99371.44;;;9.83;100.00
71907;BME280;59781;52.090;5.030;2023-04-01T05:49:19;99376.22;;;9.87;100.00
71907;BME280;59781;52.090;5.030;2023-04-01T05:51:45;99380.91;;;9.65;100.00
71907;BME280;59781;52.090;5.030;2023-04-01T05:54:11;99383.59;;;9.72;100.00
71907;BME280;59781;52.090;5.030;2023-04-01T05:56:37;99382.59;;;9.80;100.00
71907;BME280;59781;52.090;5.030;2023-04-01T05:59:03;99384.25;;;9.74;100.00
71907;BME280;59781;52.090;5.030;2023-04-01T06:01:28;99375.16;;;9.82;100.00
71907;BME280;59781;52.090;5.030;2023-04-01T06:03:54;99375.28;;;9.60;100.00
71907;BME280;59781;52.090;5.030;2023-04-01T06:06:25;99392.31;;;9.74;100.00
71907;BME280;59781;52.090;5.030;2023-04-01T06:09:01;99396.41;;;9.70;100.00
71907;BME280;59781;52.090;5.030;2023-04-01T06:15:05;99399.78;;;9.85;100.00
71907;BME280;59781;52.090;5.030;2023-04-01T06:51:37;99479.91;;;9.62;100.00
71907;BME280;59781;52.090;5.030;2023-04-01T06:54:48;99479.09;;;9.61;100.00
71907;BME280;59781;52.090;5.030;2023-04-01T06:57:47;99482.03;;;9.73;100.00
71907;BME280;59781;52.090;5.030;2023-04-01T07:00:22;99489.69;;;9.69;100.00
71907;BME280;59781;52.090;5.030;2023-04-01T07:03:06;99497.75;;;9.69;100.00
71907;BME280;59781;52.090;5.030;2023-04-01T07:05:46;99500.38;;;9.63;100.00
71907;BME280;59781;52.090;5.030;2023-04-01T07:08:20;99506.31;;;9.52;100.00
71907;BME280;59781;52.090;5.030;2023-04-01T07:11:04;99509.28;;;9.63;100.00
71907;BME280;59781;52.090;5.030;2023-04-01T07:19:53;99519.44;;;9.68;100.00
71907;BME280;59781;52.090;5.030;2023-04-01T07:22:39;99517.84;;;9.80;100.00
71907;BME280;59781;52.090;5.030;2023-04-01T07:25:51;99524.97;;;9.94;100.00
71907;BME280;59781;52.090;5.030;2023-04-01T07:28:39;99533.16;;;9.80;100.00
71907;BME280;59781;52.090;5.030;2023-04-01T07:40:42;99564.19;;;9.82;100.00
71907;BME280;59781;52.090;5.030;2023-04-01T07:49:54;99567.81;;;10.02;100.00
71907;BME280;59781;52.090;5.030;2023-04-01T07:55:27;99566.88;;;10.17;100.00
71907;BME280;59781;52.090;5.030;2023-04-01T07:58:18;99572.78;;;9.99;100.00
71907;BME280;59781;52.090;5.030;2023-04-01T08:00:59;99582.41;;;10.21;100.00
71907;BME280;59781;52.090;5.030;2023-04-01T08:04:00;99577.84;;;10.15;100.00
71907;BME280;59781;52.090;5.030;2023-04-01T08:10:40;99594.69;;;10.30;100.00
71907;BME280;59781;52.090;5.030;2023-04-01T08:17:48;99607.13;;;10.31;100.00
71907;BME280;59781;52.090;5.030;2023-04-01T08:20:32;99610.03;;;10.30;100.00
71907;BME280;59781;52.090;5.030;2023-04-01T08:25:44;99619.13;;;9.94;100.00
71907;BME280;59781;52.090;5.030;2023-04-01T08:28:26;99624.50;;;10.29;100.00
71907;BME280;59781;52.090;5.030;2023-04-01T08:31:37;99621.25;;;10.40;100.00
71907;BME280;59781;52.090;5.030;2023-04-01T08:34:30;99620.03;;;10.43;100.00
71907;BME280;59781;52.090;5.030;2023-04-01T08:37:32;99628.16;;;10.21;100.00
71907;BME280;59781;52.090;5.030;2023-04-01T08:45:45;99642.81;;;10.47;100.00
71907;BME280;59781;52.090;5.030;2023-04-01T08:48:41;99655.44;;;10.46;100.00
71907;BME280;59781;52.090;5.030;2023-04-01T08:51:26;99647.34;;;10.40;100.00
71907;BME280;59781;52.090;5.030;2023-04-01T08:54:14;99647.91;;;10.28;100.00
71907;BME280;59781;52.090;5.030;2023-04-01T09:12:50;99668.69;;;10.89;100.00
71907;BME280;59781;52.090;5.030;2023-04-01T09:21:40;99675.84;;;11.36;100.00
71907;BME280;59781;52.090;5.030;2023-04-01T09:27:27;99681.56;;;10.94;100.00
71907;BME280;59781;52.090;5.030;2023-04-01T09:33:05;99687.97;;;10.93;100.00
71907;BME280;59781;52.090;5.030;2023-04-01T09:42:29;99695.13;;;11.33;100.00
71907;BME280;59781;52.090;5.030;2023-04-01T10:07:17;99720.28;;;11.67;100.00
71907;BME280;59781;52.090;5.030;2023-04-01T10:38:31;99731.13;;;11.93;100.00
71907;BME280;59781;52.090;5.030;2023-04-01T10:51:17;99747.25;;;11.54;100.00
71907;BME280;59781;52.090;5.030;2023-04-01T11:11:46;99782.75;;;11.70;100.00
71907;BME280;59781;52.090;5.030;2023-04-01T11:20:25;99786.94;;;11.80;100.00
71907;BME280;59781;52.090;5.030;2023-04-01T11:23:23;99789.66;;;12.06;100.00
71907;BME280;59781;52.090;5.030;2023-04-01T11:28:58;99792.38;;;12.39;100.00
71907;BME280;59781;52.090;5.030;2023-04-01T11:31:58;99786.66;;;13.00;100.00
71907;BME280;59781;52.090;5.030;2023-04-01T11:37:51;99797.41;;;13.27;100.00
71907;BME280;59781;52.090;5.030;2023-04-01T12:05:02;99839.75;;;11.54;100.00
71907;BME280;59781;52.090;5.030;2023-04-01T12:10:39;99867.78;;;11.18;100.00
71907;BME280;59781;52.090;5.030;2023-04-01T12:16:29;99870.22;;;11.55;100.00
71907;BME280;59781;52.090;5.030;2023-04-01T12:21:50;99873.50;;;11.91;100.00
71907;BME280;59781;52.090;5.030;2023-04-01T12:24:47;99875.34;;;11.84;100.00
71907;BME280;59781;52.090;5.030;2023-04-01T12:30:32;99878.59;;;11.73;100.00
71907;BME280;59781;52.090;5.030;2023-04-01T12:39:39;99885.72;;;11.81;100.00
71907;BME280;59781;52.090;5.030;2023-04-01T12:45:30;99885.41;;;12.10;100.00
71907;BME280;59781;52.090;5.030;2023-04-01T12:51:23;99889.81;;;12.64;100.00
71907;BME280;59781;52.090;5.030;2023-04-01T13:01:23;99892.06;;;12.21;100.00
71907;BME280;59781;52.090;5.030;2023-04-01T13:15:43;99917.56;;;12.18;100.00
71907;BME280;59781;52.090;5.030;2023-04-01T13:18:36;99923.22;;;12.37;100.00
71907;BME280;59781;52.090;5.030;2023-04-01T13:21:37;99927.16;;;12.21;100.00
71907;BME280;59781;52.090;5.030;2023-04-01T13:27:38;99931.97;;;13.11;100.00
71907;BME280;59781;52.090;5.030;2023-04-01T13:30:29;99938.00;;;12.93;100.00
71907;BME280;59781;52.090;5.030;2023-04-01T13:36:26;99938.00;;;12.74;100.00
71907;BME280;59781;52.090;5.030;2023-04-01T13:39:22;99947.06;;;12.13;100.00
71907;BME280;59781;52.090;5.030;2023-04-01T13:42:25;99952.22;;;12.08;100.00
71907;BME280;59781;52.090;5.030;2023-04-01T13:57:27;99977.47;;;11.87;100.00
71907;BME280;59781;52.090;5.030;2023-04-01T14:00:23;99975.47;;;11.68;100.00
71907;BME280;59781;52.090;5.030;2023-04-01T14:18:01;100014.59;;;11.23;100.00
71907;BME280;59781;52.090;5.030;2023-04-01T14:20:50;100025.03;;;11.11;100.00
71907;BME280;59781;52.090;5.030;2023-04-01T14:23:42;100020.25;;;11.06;100.00
71907;BME280;59781;52.090;5.030;2023-04-01T14:26:30;100021.53;;;10.89;100.00
71907;BME280;59781;52.090;5.030;2023-04-01T14:32:46;100030.47;;;10.89;100.00
71907;BME280;59781;52.090;5.030;2023-04-01T14:36:02;100041.31;;;10.96;100.00
71907;BME280;59781;52.090;5.030;2023-04-01T14:39:07;100034.81;;;10.90;100.00
71907;BME280;59781;52.090;5.030;2023-04-01T14:50:54;100059.31;;;11.17;100.00
71907;BME280;59781;52.090;5.030;2023-04-01T14:53:36;100069.38;;;11.08;100.00
71907;BME280;59781;52.090;5.030;2023-04-01T14:56:11;100064.00;;;11.08;100.00
71907;BME280;59781;52.090;5.030;2023-04-01T15:10:01;100089.16;;;11.15;100.00
71907;BME280;59781;52.090;5.030;2023-04-01T15:13:04;100091.72;;;11.24;100.00
71907;BME280;59781;52.090;5.030;2023-04-01T15:22:23;100109.69;;;11.16;100.00
71907;BME280;59781;52.090;5.030;2023-04-01T15:39:14;100142.63;;;10.76;100.00
71907;BME280;59781;52.090;5.030;2023-04-01T15:42:21;100151.53;;;10.76;100.00
71907;BME280;59781;52.090;5.030;2023-04-01T15:45:09;100155.41;;;10.88;100.00
71907;BME280;59781;52.090;5.030;2023-04-01T15:48:10;100163.19;;;10.98;100.00
71907;BME280;59781;52.090;5.030;2023-04-01T15:57:37;100187.44;;;10.98;100.00
71907;BME280;59781;52.090;5.030;2023-04-01T16:00:45;100192.88;;;10.69;100.00
71907;BME280;59781;52.090;5.030;2023-04-01T16:12:41;100207.84;;;10.56;100.00
71907;BME280;59781;52.090;5.030;2023-04-01T16:16:00;100212.09;;;10.51;100.00
71907;BME280;59781;52.090;5.030;2023-04-01T16:29:49;100238.00;;;10.37;100.00
71907;BME280;59781;52.090;5.030;2023-04-01T16:32:41;100238.66;;;10.39;100.00
71907;BME280;59781;52.090;5.030;2023-04-01T16:35:31;100245.50;;;10.42;100.00
71907;BME280;59781;52.090;5.030;2023-04-01T16:38:43;100256.56;;;10.47;100.00
71907;BME280;59781;52.090;5.030;2023-04-01T16:41:31;100264.72;;;10.39;100.00
71907;BME280;59781;52.090;5.030;2023-04-01T16:44:18;100260.66;;;10.57;100.00
71907;BME280;59781;52.090;5.030;2023-04-01T16:47:09;100270.50;;;10.65;100.00
71907;BME280;59781;52.090;5.030;2023-04-01T16:49:51;100275.34;;;10.55;100.00
71907;BME280;59781;52.090;5.030;2023-04-01T16:55:35;100289.97;;;10.23;100.00
71907;BME280;59781;52.090;5.030;2023-04-01T16:58:10;100293.16;;;10.18;100.00
71907;BME280;59781;52.090;5.030;2023-04-01T17:01:04;100309.66;;;10.23;100.00
71907;BME280;59781;52.090;5.030;2023-04-01T17:03:44;100310.56;;;10.07;100.00
71907;BME280;59781;52.090;5.030;2023-04-01T17:06:30;100317.66;;;9.86;100.00
71907;BME280;59781;52.090;5.030;2023-04-01T17:11:57;100344.19;;;9.89;100.00
71907;BME280;59781;52.090;5.030;2023-04-01T17:20:59;100354.41;;;9.62;100.00
71907;BME280;59781;52.090;5.030;2023-04-01T17:23:34;100365.22;;;9.85;100.00
71907;BME280;59781;52.090;5.030;2023-04-01T17:28:58;100375.38;;;9.75;100.00
71907;BME280;59781;52.090;5.030;2023-04-01T17:32:11;100388.50;;;9.70;100.00
71907;BME280;59781;52.090;5.030;2023-04-01T17:35:02;100390.38;;;9.61;100.00
71907;BME280;59781;52.090;5.030;2023-04-01T17:37:50;100400.84;;;9.56;100.00
71907;BME280;59781;52.090;5.030;2023-04-01T18:09:29;100461.38;;;9.44;100.00
71907;BME280;59781;52.090;5.030;2023-04-01T18:21:46;100512.00;;;9.16;100.00
71907;BME280;59781;52.090;5.030;2023-04-01T18:24:40;100509.22;;;9.48;100.00
71907;BME280;59781;52.090;5.030;2023-04-01T18:27:24;100512.22;;;9.54;100.00
71907;BME280;59781;52.090;5.030;2023-04-01T18:30:07;100516.31;;;9.33;100.00
71907;BME280;59781;52.090;5.030;2023-04-01T18:32:50;100531.16;;;9.05;100.00
71907;BME280;59781;52.090;5.030;2023-04-01T18:35:53;100533.50;;;9.08;100.00
71907;BME280;59781;52.090;5.030;2023-04-01T18:38:47;100543.69;;;9.37;100.00
71907;BME280;59781;52.090;5.030;2023-04-01T18:41:35;100545.03;;;9.41;100.00
71907;BME280;59781;52.090;5.030;2023-04-01T18:44:46;100545.38;;;9.30;100.00
71907;BME280;59781;52.090;5.030;2023-04-01T18:47:42;100553.47;;;9.05;100.00
71907;BME280;59781;52.090;5.030;2023-04-01T18:53:25;100577.31;;;9.16;100.00
71907;BME280;59781;52.090;5.030;2023-04-01T18:56:11;100577.97;;;9.10;100.00
71907;BME280;59781;52.090;5.030;2023-04-01T19:02:19;100595.78;;;8.95;100.00
71907;BME280;59781;52.090;5.030;2023-04-01T19:05:02;100612.19;;;8.84;100.00
71907;BME280;59781;52.090;5.030;2023-04-01T19:07:53;100620.28;;;9.00;100.00
71907;BME280;59781;52.090;5.030;2023-04-01T19:15:49;100632.38;;;9.12;100.00
71907;BME280;59781;52.090;5.030;2023-04-01T19:21:21;100634.91;;;9.06;100.00
71907;BME280;59781;52.090;5.030;2023-04-01T19:30:14;100662.22;;;8.77;100.00
71907;BME280;59781;52.090;5.030;2023-04-01T19:39:27;100682.19;;;8.90;100.00
71907;BME280;59781;52.090;5.030;2023-04-01T19:45:45;100694.34;;;8.60;100.00
71907;BME280;59781;52.090;5.030;2023-04-01T19:54:22;100708.06;;;8.49;100.00
71907;BME280;59781;52.090;5.030;2023-04-01T20:03:47;100731.28;;;8.07;100.00
71907;BME280;59781;52.090;5.030;2023-04-01T20:06:32;100743.69;;;8.08;100.00
71907;BME280;59781;52.090;5.030;2023-04-01T20:09:23;100755.31;;;8.16;100.00
71907;BME280;59781;52.090;5.030;2023-04-01T20:14:58;100764.09;;;8.26;100.00
71907;BME280;59781;52.090;5.030;2023-04-01T20:17:44;100758.41;;;8.29;100.00
71907;BME280;59781;52.090;5.030;2023-04-01T20:25:32;100779.91;;;8.12;100.00
71907;BME280;59781;52.090;5.030;2023-04-01T20:28:14;100784.94;;;8.07;100.00
71907;BME280;59781;52.090;5.030;2023-04-01T20:42:59;100823.31;;;8.07;100.00
71907;BME280;59781;52.090;5.030;2023-04-01T20:51:39;100849.22;;;7.98;100.00
71907;BME280;59781;52.090;5.030;2023-04-01T20:57:16;100851.97;;;7.89;100.00
71907;BME280;59781;52.090;5.030;2023-04-01T21:00:57;100854.66;;;7.89;100.00
71907;BME280;59781;52.090;5.030;2023-04-01T21:09:55;100868.13;;;7.61;100.00
71907;BME280;59781;52.090;5.030;2023-04-01T21:12:59;100874.63;;;7.76;100.00
71907;BME280;59781;52.090;5.030;2023-04-01T21:35:08;100919.19;;;7.32;100.00
71907;BME280;59781;52.090;5.030;2023-04-01T21:59:27;100969.06;;;7.43;100.00
71907;BME280;59781;52.090;5.030;2023-04-01T22:14:24;100999.47;;;7.14;100.00
71907;BME280;59781;52.090;5.030;2023-04-01T22:19:56;101012.41;;;7.29;100.00
71907;BME280;59781;52.090;5.030;2023-04-01T22:25:47;101016.63;;;7.31;100.00
71907;BME280;59781;52.090;5.030;2023-04-01T22:28:42;101031.06;;;7.21;100.00
71907;BME280;59781;52.090;5.030;2023-04-01T22:31:19;101036.13;;;7.14;100.00
71907;BME280;59781;52.090;5.030;2023-04-01T22:34:35;101040.13;;;7.00;100.00
71907;BME280;59781;52.090;5.030;2023-04-01T22:40:27;101051.50;;;7.12;100.00
71907;BME280;59781;52.090;5.030;2023-04-01T22:43:09;101053.03;;;7.14;100.00
71907;BME280;59781;52.090;5.030;2023-04-01T22:48:41;101071.41;;;7.00;100.00
71907;BME280;59781;52.090;5.030;2023-04-01T22:54:18;101076.00;;;7.07;100.00
71907;BME280;59781;52.090;5.030;2023-04-01T22:57:04;101083.66;;;6.83;100.00
71907;BME280;59781;52.090;5.030;2023-04-01T23:02:18;101084.94;;;6.98;100.00
71907;BME280;59781;52.090;5.030;2023-04-01T23:04:54;101095.91;;;7.05;100.00
71907;BME280;59781;52.090;5.030;2023-04-01T23:10:41;101096.91;;;6.94;100.00
71907;BME280;59781;52.090;5.030;2023-04-01T23:13:20;101103.53;;;7.00;100.00
71907;BME280;59781;52.090;5.030;2023-04-01T23:15:58;101113.41;;;6.99;100.00
71907;BME280;59781;52.090;5.030;2023-04-01T23:19:22;101118.88;;;7.07;100.00
71907;BME280;59781;52.090;5.030;2023-04-01T23:21:47;101132.53;;;6.85;100.00
71907;BME280;59781;52.090;5.030;2023-04-01T23:24:50;101127.75;;;6.79;100.00
71907;BME280;59781;52.090;5.030;2023-04-01T23:33:30;101136.50;;;6.81;100.00
71907;BME280;59781;52.090;5.030;2023-04-01T23:36:09;101137.06;;;6.94;100.00
71907;BME280;59781;52.090;5.030;2023-04-01T23:38:40;101142.97;;;6.88;100.00
71907;BME280;59781;52.090;5.030;2023-04-01T23:41:23;101149.59;;;7.13;100.00
71907;BME280;59781;52.090;5.030;2023-04-01T23:44:08;101155.38;;;6.89;100.00
71907;BME280;59781;52.090;5.030;2023-04-01T23:46:40;101156.78;;;7.03;100.00
71907;BME280;59781;52.090;5.030;2023-04-01T23:49:19;101169.31;;;6.83;100.00
71907;BME280;59781;52.090;5.030;2023-04-01T23:51:53;101162.25;;;6.63;100.00
71907;BME280;59781;52.090;5.030;2023-04-01T23:54:44;101177.06;;;6.86;100.00
71907;BME280;59781;52.090;5.030;2023-04-01T23:57:21;101176.47;;;6.63;100.00
